createdAt,value
2018-07-25T00:00:11.671Z,0.00
2018-07-25T00:01:11.662Z,0.00
2018-07-25T00:02:11.647Z,0.00
2018-07-25T00:03:11.639Z,0.00
2018-07-25T00:04:11.628Z,0.00
2018-07-25T00:05:11.616Z,0.00
2018-07-25T00:06:11.605Z,0.00
2018-07-25T00:07:11.595Z,0.00
2018-07-25T00:08:11.585Z,0.00
2018-07-25T00:09:11.573Z,0.00
2018-07-25T00:10:11.562Z,0.00
2018-07-25T00:11:11.552Z,0.00
2018-07-25T00:12:11.541Z,0.00
2018-07-25T00:13:11.530Z,0.00
2018-07-25T00:14:11.519Z,0.00
2018-07-25T00:15:11.507Z,0.00
2018-07-25T00:16:11.500Z,0.00
2018-07-25T00:17:11.487Z,0.00
2018-07-25T00:18:11.475Z,0.00
2018-07-25T00:19:11.466Z,0.00
2018-07-25T00:20:11.458Z,0.00
2018-07-25T00:21:11.442Z,0.00
2018-07-25T00:22:11.431Z,0.00
2018-07-25T00:23:11.422Z,0.00
2018-07-25T00:24:11.414Z,0.00
2018-07-25T00:25:11.402Z,0.00
2018-07-25T00:26:11.392Z,0.00
2018-07-25T00:27:11.378Z,0.00
2018-07-25T00:28:11.366Z,0.00
2018-07-25T00:29:11.395Z,0.00
2018-07-25T00:30:11.352Z,0.00
2018-07-25T00:31:11.333Z,0.00
2018-07-25T00:32:11.322Z,0.00
2018-07-25T00:33:11.315Z,0.00
2018-07-25T00:34:11.300Z,0.00
2018-07-25T00:35:11.292Z,0.00
2018-07-25T00:36:11.319Z,0.00
2018-07-25T00:37:11.267Z,0.00
2018-07-25T00:38:11.261Z,0.00
2018-07-25T00:39:11.245Z,0.00
2018-07-25T00:40:11.236Z,0.00
2018-07-25T00:41:11.223Z,0.00
2018-07-25T00:42:11.211Z,0.00
2018-07-25T00:43:11.930Z,0.00
2018-07-25T00:44:11.513Z,0.00
2018-07-25T00:45:13.322Z,0.00
2018-07-25T00:47:12.491Z,0.00
2018-07-25T00:49:13.382Z,0.00
2018-07-25T00:50:11.122Z,0.00
2018-07-25T00:51:11.112Z,0.00
2018-07-25T00:52:11.105Z,0.00
2018-07-25T00:53:11.087Z,0.00
2018-07-25T00:54:11.078Z,0.00
2018-07-25T00:55:11.069Z,0.00
2018-07-25T00:56:11.057Z,0.00
2018-07-25T00:57:11.045Z,0.00
2018-07-25T00:58:11.033Z,0.00
2018-07-25T00:59:11.022Z,0.00
2018-07-25T01:00:11.049Z,0.00
2018-07-25T01:01:11.005Z,0.00
2018-07-25T01:02:10.990Z,0.00
2018-07-25T01:03:10.979Z,0.00
2018-07-25T01:04:10.968Z,0.00
2018-07-25T01:05:10.955Z,0.00
2018-07-25T01:06:10.942Z,0.00
2018-07-25T01:07:10.932Z,0.00
2018-07-25T01:08:10.931Z,0.00
2018-07-25T01:09:10.908Z,0.00
2018-07-25T01:10:10.899Z,0.00
2018-07-25T01:11:10.886Z,0.00
2018-07-25T01:12:10.875Z,0.00
2018-07-25T01:13:10.864Z,0.00
2018-07-25T01:14:10.851Z,0.00
2018-07-25T01:15:10.840Z,0.00
2018-07-25T01:16:10.831Z,0.00
2018-07-25T01:17:10.817Z,0.00
2018-07-25T01:18:10.807Z,0.00
2018-07-25T01:19:10.796Z,0.00
2018-07-25T01:20:10.785Z,0.00
2018-07-25T01:21:10.774Z,0.00
2018-07-25T01:22:10.760Z,0.00
2018-07-25T01:23:10.750Z,0.00
2018-07-25T01:24:10.738Z,0.00
2018-07-25T01:25:10.725Z,0.00
2018-07-25T01:26:10.716Z,0.00
2018-07-25T01:27:10.703Z,0.00
2018-07-25T01:28:10.691Z,0.00
2018-07-25T01:29:10.681Z,0.00
2018-07-25T01:30:10.669Z,0.00
2018-07-25T01:31:10.658Z,0.00
2018-07-25T01:32:10.653Z,0.00
2018-07-25T01:33:10.638Z,0.00
2018-07-25T01:34:10.622Z,0.00
2018-07-25T01:35:10.612Z,0.00
2018-07-25T01:36:10.601Z,0.00
2018-07-25T01:37:10.587Z,0.00
2018-07-25T01:38:10.576Z,0.00
2018-07-25T01:39:10.567Z,0.00
2018-07-25T01:40:10.554Z,0.00
2018-07-25T01:41:10.542Z,0.00
2018-07-25T01:42:10.530Z,0.00
2018-07-25T01:43:10.518Z,0.00
2018-07-25T01:44:10.507Z,0.00
2018-07-25T01:45:10.494Z,0.00
2018-07-25T01:46:10.484Z,0.00
2018-07-25T01:47:10.475Z,0.00
2018-07-25T01:48:10.461Z,0.00
2018-07-25T01:49:10.448Z,0.00
2018-07-25T01:50:10.437Z,0.00
2018-07-25T01:51:10.431Z,0.00
2018-07-25T01:52:10.415Z,0.00
2018-07-25T01:53:10.406Z,0.00
2018-07-25T01:54:10.392Z,0.00
2018-07-25T01:55:10.380Z,0.00
2018-07-25T01:56:10.367Z,0.00
2018-07-25T01:57:10.356Z,0.00
2018-07-25T01:58:10.349Z,0.00
2018-07-25T01:59:10.333Z,0.00
2018-07-25T02:00:10.328Z,0.00
2018-07-25T02:01:10.310Z,0.00
2018-07-25T02:02:10.297Z,0.00
2018-07-25T02:03:10.290Z,0.00
2018-07-25T02:04:10.277Z,0.00
2018-07-25T02:05:10.264Z,0.00
2018-07-25T02:06:10.254Z,0.00
2018-07-25T02:07:10.241Z,0.00
2018-07-25T02:08:10.257Z,0.00
2018-07-25T02:09:10.216Z,0.00
2018-07-25T02:10:10.209Z,0.00
2018-07-25T02:11:10.194Z,0.00
2018-07-25T02:12:10.183Z,0.00
2018-07-25T02:13:10.170Z,0.00
2018-07-25T02:14:10.159Z,0.00
2018-07-25T02:15:10.148Z,0.00
2018-07-25T02:16:10.135Z,0.00
2018-07-25T02:17:10.124Z,0.00
2018-07-25T02:18:10.114Z,0.00
2018-07-25T02:19:10.100Z,0.00
2018-07-25T02:20:10.090Z,0.00
2018-07-25T02:21:10.078Z,0.00
2018-07-25T02:22:10.065Z,0.00
2018-07-25T02:23:10.053Z,0.00
2018-07-25T02:24:10.043Z,0.00
2018-07-25T02:25:10.030Z,0.00
2018-07-25T02:26:10.018Z,0.00
2018-07-25T02:27:10.007Z,0.00
2018-07-25T02:28:09.996Z,0.00
2018-07-25T02:29:09.986Z,0.00
2018-07-25T02:30:09.977Z,0.00
2018-07-25T02:31:09.966Z,0.00
2018-07-25T02:32:09.949Z,0.00
2018-07-25T02:33:09.936Z,0.00
2018-07-25T02:34:09.924Z,0.00
2018-07-25T02:35:09.913Z,0.00
2018-07-25T02:36:09.908Z,0.00
2018-07-25T02:37:09.890Z,0.00
2018-07-25T02:38:09.879Z,4.00
2018-07-25T02:39:09.866Z,4.00
2018-07-25T02:40:09.855Z,4.00
2018-07-25T02:41:09.843Z,0.00
2018-07-25T02:42:09.836Z,0.00
2018-07-25T02:43:09.819Z,4.00
2018-07-25T02:44:09.810Z,4.00
2018-07-25T02:45:09.800Z,0.00
2018-07-25T02:46:09.789Z,4.00
2018-07-25T02:47:09.775Z,4.00
2018-07-25T02:48:09.767Z,8.00
2018-07-25T02:49:09.768Z,4.00
2018-07-25T02:50:09.741Z,8.00
2018-07-25T02:51:09.727Z,8.00
2018-07-25T02:52:09.718Z,8.00
2018-07-25T02:53:09.703Z,8.00
2018-07-25T02:54:09.693Z,8.00
2018-07-25T02:55:09.680Z,12.00
2018-07-25T02:56:09.669Z,12.00
2018-07-25T02:57:09.658Z,12.00
2018-07-25T02:58:09.649Z,16.00
2018-07-25T02:59:09.635Z,16.00
2018-07-25T03:00:09.623Z,20.00
2018-07-25T03:01:09.613Z,24.00
2018-07-25T03:02:09.598Z,24.00
2018-07-25T03:03:09.588Z,28.00
2018-07-25T03:04:09.576Z,32.00
2018-07-25T03:05:09.563Z,36.00
2018-07-25T03:06:09.555Z,36.00
2018-07-25T03:07:09.540Z,44.00
2018-07-25T03:08:09.527Z,48.00
2018-07-25T03:09:09.600Z,52.00
2018-07-25T03:10:09.502Z,52.00
2018-07-25T03:11:09.492Z,60.00
2018-07-25T03:12:09.482Z,60.00
2018-07-25T03:13:09.468Z,68.00
2018-07-25T03:14:09.456Z,72.00
2018-07-25T03:16:09.431Z,80.00
2018-07-25T03:17:09.627Z,84.00
2018-07-25T03:18:09.408Z,88.00
2018-07-25T03:19:09.396Z,92.00
2018-07-25T03:20:09.395Z,100.00
2018-07-25T03:21:09.377Z,104.00
2018-07-25T03:22:09.364Z,112.00
2018-07-25T03:23:09.350Z,120.00
2018-07-25T03:24:09.338Z,132.00
2018-07-25T03:25:09.325Z,140.00
2018-07-25T03:26:09.315Z,152.00
2018-07-25T03:27:09.305Z,160.00
2018-07-25T03:28:09.293Z,168.00
2018-07-25T03:29:09.286Z,172.00
2018-07-25T03:30:09.287Z,184.00
2018-07-25T03:31:09.260Z,188.00
2018-07-25T03:32:09.245Z,204.00
2018-07-25T03:33:09.233Z,212.00
2018-07-25T03:34:09.219Z,224.00
2018-07-25T03:35:09.206Z,252.00
2018-07-25T03:36:09.197Z,268.00
2018-07-25T03:37:09.184Z,272.00
2018-07-25T03:38:09.172Z,268.00
2018-07-25T03:39:09.159Z,292.00
2018-07-25T03:40:09.148Z,308.00
2018-07-25T03:41:09.142Z,336.00
2018-07-25T03:42:09.125Z,348.00
2018-07-25T03:43:09.114Z,348.00
2018-07-25T03:44:09.102Z,348.00
2018-07-25T03:45:09.091Z,376.00
2018-07-25T03:46:09.078Z,408.00
2018-07-25T03:47:09.065Z,436.00
2018-07-25T03:48:09.055Z,508.00
2018-07-25T03:49:09.042Z,592.00
2018-07-25T03:50:09.035Z,620.00
2018-07-25T03:51:09.019Z,604.00
2018-07-25T03:52:09.009Z,612.00
2018-07-25T03:53:08.999Z,676.00
2018-07-25T03:54:08.981Z,748.00
2018-07-25T03:55:08.978Z,804.00
2018-07-25T03:56:08.963Z,744.00
2018-07-25T03:57:08.948Z,684.00
2018-07-25T03:58:08.935Z,640.00
2018-07-25T03:59:08.925Z,624.00
2018-07-25T04:00:08.912Z,604.00
2018-07-25T04:01:08.904Z,620.00
2018-07-25T04:02:08.895Z,652.00
2018-07-25T04:03:08.883Z,720.00
2018-07-25T04:04:08.866Z,812.00
2018-07-25T04:05:08.853Z,836.00
2018-07-25T04:06:08.847Z,816.00
2018-07-25T04:07:08.830Z,864.00
2018-07-25T04:08:08.843Z,884.00
2018-07-25T04:09:08.809Z,980.00
2018-07-25T04:10:08.796Z,1148.00
2018-07-25T04:11:08.790Z,1272.00
2018-07-25T04:12:08.774Z,1224.00
2018-07-25T04:13:08.766Z,1080.00
2018-07-25T04:14:08.749Z,1048.00
2018-07-25T04:15:08.738Z,1128.00
2018-07-25T04:16:08.734Z,1072.00
2018-07-25T04:17:08.719Z,968.00
2018-07-25T04:18:08.706Z,972.00
2018-07-25T04:19:08.692Z,960.00
2018-07-25T04:20:08.682Z,980.00
2018-07-25T04:21:08.671Z,992.00
2018-07-25T04:22:08.657Z,1052.00
2018-07-25T04:23:08.646Z,1136.00
2018-07-25T04:24:08.637Z,1240.00
2018-07-25T04:25:08.625Z,1232.00
2018-07-25T04:26:08.612Z,1296.00
2018-07-25T04:27:08.601Z,1424.00
2018-07-25T04:28:08.592Z,1568.00
2018-07-25T04:29:08.579Z,1716.00
2018-07-25T04:30:08.571Z,1836.00
2018-07-25T04:31:08.559Z,1748.00
2018-07-25T04:32:08.546Z,1752.00
2018-07-25T04:33:08.532Z,1564.00
2018-07-25T04:34:08.523Z,1356.00
2018-07-25T04:35:08.511Z,1300.00
2018-07-25T04:36:08.502Z,1288.00
2018-07-25T04:37:08.488Z,1232.00
2018-07-25T04:38:08.479Z,1184.00
2018-07-25T04:39:08.466Z,1176.00
2018-07-25T04:40:08.454Z,1188.00
2018-07-25T04:41:08.441Z,1160.00
2018-07-25T04:42:08.432Z,1116.00
2018-07-25T04:43:08.422Z,1076.00
2018-07-25T04:44:08.409Z,1040.00
2018-07-25T04:45:08.397Z,1012.00
2018-07-25T04:46:08.427Z,992.00
2018-07-25T04:47:08.376Z,988.00
2018-07-25T04:48:08.365Z,980.00
2018-07-25T04:49:08.352Z,976.00
2018-07-25T04:50:08.341Z,980.00
2018-07-25T04:51:08.331Z,980.00
2018-07-25T04:52:08.321Z,992.00
2018-07-25T04:53:08.309Z,1000.00
2018-07-25T04:54:08.298Z,1008.00
2018-07-25T04:55:08.287Z,1020.00
2018-07-25T04:56:08.289Z,1024.00
2018-07-25T04:57:08.265Z,1036.00
2018-07-25T04:58:08.252Z,1048.00
2018-07-25T04:59:08.249Z,1064.00
2018-07-25T05:00:08.232Z,1076.00
2018-07-25T05:01:08.222Z,1096.00
2018-07-25T05:02:08.209Z,1116.00
2018-07-25T05:03:08.195Z,1128.00
2018-07-25T05:04:08.190Z,1132.00
2018-07-25T05:05:08.180Z,1140.00
2018-07-25T05:06:08.168Z,1148.00
2018-07-25T05:07:08.168Z,1152.00
2018-07-25T05:08:08.142Z,1144.00
2018-07-25T05:09:08.142Z,1136.00
2018-07-25T05:10:08.120Z,1140.00
2018-07-25T05:11:08.108Z,1140.00
2018-07-25T05:12:08.098Z,1144.00
2018-07-25T05:13:08.091Z,1156.00
2018-07-25T05:14:08.081Z,1168.00
2018-07-25T05:15:08.066Z,1176.00
2018-07-25T05:16:08.055Z,1176.00
2018-07-25T05:17:08.041Z,1172.00
2018-07-25T05:18:08.031Z,1164.00
2018-07-25T05:19:08.021Z,1164.00
2018-07-25T05:20:08.014Z,1160.00
2018-07-25T05:21:07.998Z,1160.00
2018-07-25T05:22:07.989Z,1164.00
2018-07-25T05:23:08.004Z,1172.00
2018-07-25T05:24:07.965Z,1180.00
2018-07-25T05:25:07.952Z,1180.00
2018-07-25T05:26:07.942Z,1180.00
2018-07-25T05:27:07.931Z,1180.00
2018-07-25T05:28:07.924Z,1184.00
2018-07-25T05:29:07.910Z,1184.00
2018-07-25T05:30:07.963Z,1184.00
2018-07-25T05:31:07.892Z,1184.00
2018-07-25T05:32:07.896Z,1184.00
2018-07-25T05:33:07.864Z,1188.00
2018-07-25T05:34:07.853Z,1200.00
2018-07-25T05:35:07.846Z,1208.00
2018-07-25T05:36:07.837Z,1220.00
2018-07-25T05:37:07.820Z,1228.00
2018-07-25T05:38:07.861Z,1224.00
2018-07-25T05:39:07.803Z,1228.00
2018-07-25T05:40:07.790Z,1236.00
2018-07-25T05:41:07.777Z,1244.00
2018-07-25T05:42:07.768Z,1256.00
2018-07-25T05:43:07.757Z,1268.00
2018-07-25T05:44:07.749Z,1276.00
2018-07-25T05:45:07.735Z,1284.00
2018-07-25T05:46:07.733Z,1284.00
2018-07-25T05:47:07.714Z,1292.00
2018-07-25T05:48:07.706Z,1292.00
2018-07-25T05:49:07.691Z,1296.00
2018-07-25T05:50:07.680Z,1292.00
2018-07-25T05:51:07.670Z,1296.00
2018-07-25T05:52:07.658Z,1296.00
2018-07-25T05:53:07.648Z,1300.00
2018-07-25T05:54:07.637Z,1308.00
2018-07-25T05:55:07.630Z,1304.00
2018-07-25T05:56:07.617Z,1308.00
2018-07-25T05:57:07.605Z,1312.00
2018-07-25T05:58:07.593Z,1312.00
2018-07-25T05:59:07.583Z,1316.00
2018-07-25T06:00:07.572Z,1324.00
2018-07-25T06:01:07.560Z,1328.00
2018-07-25T06:02:07.555Z,1340.00
2018-07-25T06:03:07.566Z,1344.00
2018-07-25T06:04:07.530Z,1356.00
2018-07-25T06:05:07.527Z,1360.00
2018-07-25T06:06:07.635Z,1368.00
2018-07-25T06:07:07.501Z,1380.00
2018-07-25T06:08:07.488Z,1388.00
2018-07-25T06:09:07.476Z,1400.00
2018-07-25T06:10:07.466Z,1412.00
2018-07-25T06:11:07.459Z,1424.00
2018-07-25T06:12:07.452Z,1440.00
2018-07-25T06:13:07.460Z,1460.00
2018-07-25T06:14:07.451Z,1472.00
2018-07-25T06:15:07.414Z,1488.00
2018-07-25T06:16:07.402Z,1508.00
2018-07-25T06:17:07.393Z,1520.00
2018-07-25T06:18:07.377Z,1536.00
2018-07-25T06:19:07.370Z,1544.00
2018-07-25T06:20:07.363Z,1560.00
2018-07-25T06:21:07.351Z,1560.00
2018-07-25T06:22:07.343Z,1568.00
2018-07-25T06:23:07.327Z,1576.00
2018-07-25T06:24:07.319Z,1588.00
2018-07-25T06:25:07.305Z,1600.00
2018-07-25T06:26:07.297Z,1608.00
2018-07-25T06:27:07.283Z,1620.00
2018-07-25T06:28:07.274Z,1628.00
2018-07-25T06:29:07.273Z,1636.00
2018-07-25T06:30:07.255Z,1648.00
2018-07-25T06:31:07.245Z,1664.00
2018-07-25T06:32:07.232Z,1672.00
2018-07-25T06:33:07.224Z,1676.00
2018-07-25T06:34:07.211Z,1684.00
2018-07-25T06:35:07.201Z,1684.00
2018-07-25T06:36:07.194Z,1700.00
2018-07-25T06:37:07.182Z,1708.00
2018-07-25T06:38:07.169Z,1732.00
2018-07-25T06:39:07.159Z,1752.00
2018-07-25T06:40:07.149Z,1772.00
2018-07-25T06:41:07.140Z,1768.00
2018-07-25T06:42:07.129Z,1772.00
2018-07-25T06:43:07.123Z,1788.00
2018-07-25T06:44:07.117Z,1804.00
2018-07-25T06:45:07.096Z,1816.00
2018-07-25T06:46:07.089Z,1852.00
2018-07-25T06:47:07.079Z,1844.00
2018-07-25T06:48:07.075Z,1832.00
2018-07-25T06:49:07.063Z,1832.00
2018-07-25T06:50:07.046Z,1836.00
2018-07-25T06:51:07.035Z,1844.00
2018-07-25T06:52:07.039Z,1840.00
2018-07-25T06:53:07.017Z,1836.00
2018-07-25T06:54:07.006Z,1840.00
2018-07-25T06:55:06.994Z,1840.00
2018-07-25T06:56:06.985Z,1844.00
2018-07-25T06:57:06.974Z,1852.00
2018-07-25T06:58:06.968Z,1876.00
2018-07-25T06:59:06.956Z,1840.00
2018-07-25T07:00:06.947Z,1848.00
2018-07-25T07:01:06.940Z,1852.00
2018-07-25T07:02:06.931Z,1864.00
2018-07-25T07:03:06.921Z,1876.00
2018-07-25T07:04:06.911Z,1884.00
2018-07-25T07:05:06.896Z,1892.00
2018-07-25T07:06:06.886Z,1896.00
2018-07-25T07:07:06.877Z,1900.00
2018-07-25T07:08:06.873Z,1916.00
2018-07-25T07:09:06.859Z,1916.00
2018-07-25T07:10:06.849Z,1932.00
2018-07-25T07:11:06.840Z,1944.00
2018-07-25T07:12:06.888Z,1968.00
2018-07-25T07:13:06.821Z,1996.00
2018-07-25T07:14:06.813Z,2016.00
2018-07-25T07:15:06.802Z,2032.00
2018-07-25T07:16:06.792Z,2060.00
2018-07-25T07:17:06.780Z,2092.00
2018-07-25T07:18:06.776Z,2112.00
2018-07-25T07:19:06.763Z,2136.00
2018-07-25T07:20:06.755Z,2148.00
2018-07-25T07:21:06.744Z,2164.00
2018-07-25T07:22:06.735Z,2180.00
2018-07-25T07:23:06.728Z,2180.00
2018-07-25T07:24:06.781Z,2168.00
2018-07-25T07:25:06.709Z,2152.00
2018-07-25T07:26:06.708Z,2152.00
2018-07-25T07:27:06.690Z,2152.00
2018-07-25T07:28:06.681Z,2164.00
2018-07-25T07:29:06.674Z,2192.00
2018-07-25T07:30:06.670Z,2220.00
2018-07-25T07:31:06.661Z,2252.00
2018-07-25T07:32:06.643Z,2272.00
2018-07-25T07:33:06.638Z,2292.00
2018-07-25T07:34:06.635Z,2324.00
2018-07-25T07:35:06.652Z,2360.00
2018-07-25T07:36:06.614Z,2396.00
2018-07-25T07:37:06.598Z,2420.00
2018-07-25T07:38:06.590Z,2448.00
2018-07-25T07:39:06.586Z,2460.00
2018-07-25T07:40:06.574Z,2460.00
2018-07-25T07:41:06.571Z,2480.00
2018-07-25T07:42:06.558Z,2504.00
2018-07-25T07:43:06.553Z,2544.00
2018-07-25T07:44:06.555Z,2592.00
2018-07-25T07:45:06.532Z,2644.00
2018-07-25T07:46:06.524Z,2684.00
2018-07-25T07:47:06.513Z,2728.00
2018-07-25T07:48:06.505Z,2788.00
2018-07-25T07:49:06.497Z,2844.00
2018-07-25T07:50:06.490Z,2908.00
2018-07-25T07:51:06.489Z,2976.00
2018-07-25T07:52:06.477Z,3052.00
2018-07-25T07:53:06.466Z,3132.00
2018-07-25T07:54:06.488Z,3220.00
2018-07-25T07:55:06.453Z,3324.00
2018-07-25T07:56:06.443Z,3524.00
2018-07-25T07:57:06.432Z,3796.00
2018-07-25T07:58:06.460Z,4272.00
2018-07-25T07:59:06.416Z,11920.00
2018-07-25T08:00:06.408Z,23328.00
2018-07-25T08:01:06.407Z,47072.00
2018-07-25T08:02:06.394Z,69056.00
2018-07-25T08:03:09.210Z,63424.00
2018-07-25T08:04:06.379Z,61024.00
2018-07-25T08:05:06.453Z,68384.00
2018-07-25T08:06:06.366Z,71168.00
2018-07-25T08:07:06.363Z,73824.00
2018-07-25T08:08:06.357Z,69568.00
2018-07-25T08:09:06.348Z,68608.00
2018-07-25T08:11:06.356Z,76480.00
2018-07-25T08:12:06.334Z,72576.00
2018-07-25T08:13:06.345Z,72160.00
2018-07-25T08:14:06.339Z,72928.00
2018-07-25T08:15:06.316Z,74848.00
2018-07-25T08:16:06.315Z,79104.00
2018-07-25T08:17:06.325Z,81344.00
2018-07-25T08:18:06.303Z,2312.00
2018-07-25T08:19:06.355Z,2244.00
2018-07-25T08:20:06.301Z,2256.00
2018-07-25T08:21:06.320Z,2272.00
2018-07-25T08:22:06.287Z,2280.00
2018-07-25T08:23:06.283Z,2288.00
2018-07-25T08:24:06.280Z,2300.00
2018-07-25T08:25:06.279Z,2312.00
2018-07-25T08:26:06.272Z,2324.00
2018-07-25T08:27:06.270Z,2340.00
2018-07-25T08:28:06.267Z,2348.00
2018-07-25T08:29:06.260Z,2360.00
2018-07-25T08:30:06.257Z,2368.00
2018-07-25T08:31:06.257Z,2376.00
2018-07-25T08:32:06.249Z,2392.00
2018-07-25T08:33:06.244Z,2416.00
2018-07-25T08:34:06.239Z,2436.00
2018-07-25T08:35:06.233Z,2452.00
2018-07-25T08:36:06.232Z,2452.00
2018-07-25T08:37:06.228Z,2464.00
2018-07-25T08:38:06.223Z,2464.00
2018-07-25T08:39:06.220Z,2472.00
2018-07-25T08:40:06.214Z,2484.00
2018-07-25T08:41:06.213Z,2480.00
2018-07-25T08:42:06.214Z,2488.00
2018-07-25T08:43:06.200Z,2504.00
2018-07-25T08:44:06.198Z,2520.00
2018-07-25T08:45:06.204Z,2532.00
2018-07-25T08:46:06.186Z,2548.00
2018-07-25T08:47:06.182Z,2560.00
2018-07-25T08:48:06.177Z,2568.00
2018-07-25T08:49:06.171Z,2592.00
2018-07-25T08:50:06.167Z,2604.00
2018-07-25T08:51:06.173Z,2612.00
2018-07-25T08:52:06.157Z,2628.00
2018-07-25T08:53:06.152Z,2624.00
2018-07-25T08:54:06.150Z,2652.00
2018-07-25T08:55:06.144Z,2640.00
2018-07-25T08:56:06.137Z,2688.00
2018-07-25T08:57:06.133Z,2704.00
2018-07-25T08:58:06.153Z,2708.00
2018-07-25T08:59:06.134Z,2716.00
2018-07-25T09:00:06.119Z,2732.00
2018-07-25T09:01:06.114Z,2736.00
2018-07-25T09:02:06.107Z,2740.00
2018-07-25T09:03:06.104Z,2756.00
2018-07-25T09:04:06.105Z,2796.00
2018-07-25T09:05:06.092Z,2812.00
2018-07-25T09:06:06.088Z,2832.00
2018-07-25T09:07:06.084Z,2864.00
2018-07-25T09:08:06.077Z,2892.00
2018-07-25T09:09:06.090Z,2856.00
2018-07-25T09:10:06.099Z,2864.00
2018-07-25T09:11:06.061Z,2892.00
2018-07-25T09:12:06.061Z,2904.00
2018-07-25T09:13:06.137Z,2920.00
2018-07-25T09:14:06.047Z,2960.00
2018-07-25T09:15:06.050Z,2960.00
2018-07-25T09:16:06.040Z,2960.00
2018-07-25T09:17:06.031Z,2948.00
2018-07-25T09:18:06.028Z,2960.00
2018-07-25T09:19:06.070Z,2956.00
2018-07-25T09:20:06.016Z,2960.00
2018-07-25T09:21:06.010Z,2960.00
2018-07-25T09:22:06.007Z,3012.00
2018-07-25T09:23:05.999Z,3040.00
2018-07-25T09:24:05.994Z,3048.00
2018-07-25T09:25:06.049Z,3076.00
2018-07-25T09:26:05.985Z,3060.00
2018-07-25T09:27:05.978Z,3052.00
2018-07-25T09:28:05.971Z,3072.00
2018-07-25T09:29:05.967Z,3092.00
2018-07-25T09:30:05.961Z,3156.00
2018-07-25T09:31:05.957Z,3220.00
2018-07-25T09:32:05.953Z,3232.00
2018-07-25T09:33:05.953Z,3252.00
2018-07-25T09:34:05.975Z,3284.00
2018-07-25T09:35:05.935Z,3304.00
2018-07-25T09:36:05.931Z,3320.00
2018-07-25T09:37:05.927Z,3324.00
2018-07-25T09:38:05.919Z,3340.00
2018-07-25T09:39:05.919Z,3348.00
2018-07-25T09:40:05.915Z,3348.00
2018-07-25T09:41:05.965Z,3372.00
2018-07-25T09:42:05.900Z,3380.00
2018-07-25T09:43:05.892Z,3376.00
2018-07-25T09:44:05.890Z,3424.00
2018-07-25T09:45:05.882Z,3444.00
2018-07-25T09:46:05.878Z,3496.00
2018-07-25T09:47:05.915Z,3588.00
2018-07-25T09:48:05.867Z,3660.00
2018-07-25T09:49:05.862Z,3660.00
2018-07-25T09:50:05.860Z,3648.00
2018-07-25T09:51:05.849Z,3620.00
2018-07-25T09:52:05.847Z,3616.00
2018-07-25T09:53:05.856Z,3684.00
2018-07-25T09:54:05.862Z,3740.00
2018-07-25T09:55:05.834Z,3768.00
2018-07-25T09:56:05.827Z,3404.00
2018-07-25T09:57:05.827Z,1772.00
2018-07-25T09:58:05.817Z,1692.00
2018-07-25T09:59:05.844Z,1680.00
2018-07-25T10:00:05.805Z,1820.00
2018-07-25T10:01:05.929Z,3804.00
2018-07-25T10:02:05.811Z,3788.00
2018-07-25T10:03:05.791Z,3760.00
2018-07-25T10:04:05.808Z,3816.00
2018-07-25T10:05:05.780Z,3836.00
2018-07-25T10:06:05.784Z,3860.00
2018-07-25T10:07:05.796Z,3848.00
2018-07-25T10:08:05.764Z,3828.00
2018-07-25T10:09:05.758Z,3868.00
2018-07-25T10:10:05.752Z,3984.00
2018-07-25T10:11:05.745Z,4144.00
2018-07-25T10:12:05.742Z,2128.00
2018-07-25T10:13:05.737Z,3248.00
2018-07-25T10:14:05.740Z,4276.00
2018-07-25T10:15:05.800Z,4120.00
2018-07-25T10:16:05.724Z,4096.00
2018-07-25T10:17:05.716Z,4240.00
2018-07-25T10:18:05.712Z,4256.00
2018-07-25T10:19:05.734Z,4304.00
2018-07-25T10:20:05.711Z,4152.00
2018-07-25T10:21:05.696Z,4276.00
2018-07-25T10:22:05.713Z,4668.00
2018-07-25T10:23:05.692Z,5088.00
2018-07-25T10:24:05.681Z,5144.00
2018-07-25T10:25:05.715Z,5196.00
2018-07-25T10:26:05.673Z,5000.00
2018-07-25T10:27:05.665Z,5064.00
2018-07-25T10:28:05.673Z,5220.00
2018-07-25T10:29:05.678Z,5048.00
2018-07-25T10:30:05.652Z,5232.00
2018-07-25T10:31:05.648Z,5284.00
2018-07-25T10:32:05.642Z,5620.00
2018-07-25T10:33:05.674Z,5480.00
2018-07-25T10:34:05.633Z,5780.00
2018-07-25T10:35:05.624Z,5676.00
2018-07-25T10:36:05.621Z,6008.00
2018-07-25T10:37:05.615Z,5668.00
2018-07-25T10:38:05.618Z,5468.00
2018-07-25T10:39:05.642Z,5732.00
2018-07-25T10:40:05.605Z,5864.00
2018-07-25T10:41:05.597Z,5700.00
2018-07-25T10:42:05.589Z,3468.00
2018-07-25T10:43:05.584Z,3012.00
2018-07-25T10:44:05.580Z,2808.00
2018-07-25T10:45:05.580Z,4608.00
2018-07-25T10:46:05.570Z,3108.00
2018-07-25T10:47:05.566Z,2320.00
2018-07-25T10:48:05.560Z,2288.00
2018-07-25T10:49:05.559Z,2068.00
2018-07-25T10:50:05.552Z,1936.00
2018-07-25T10:51:05.545Z,2124.00
2018-07-25T10:52:05.545Z,4604.00
2018-07-25T10:53:05.540Z,4544.00
2018-07-25T10:54:05.529Z,4784.00
2018-07-25T10:55:05.527Z,5144.00
2018-07-25T10:56:05.520Z,5224.00
2018-07-25T10:57:05.515Z,5144.00
2018-07-25T10:58:05.512Z,5136.00
2018-07-25T10:59:05.513Z,5048.00
2018-07-25T11:00:05.506Z,4940.00
2018-07-25T11:01:05.494Z,4924.00
2018-07-25T11:02:05.507Z,4864.00
2018-07-25T11:03:05.491Z,4740.00
2018-07-25T11:04:05.481Z,4704.00
2018-07-25T11:05:05.479Z,4700.00
2018-07-25T11:06:05.475Z,4604.00
2018-07-25T11:07:05.466Z,4624.00
2018-07-25T11:08:05.461Z,4720.00
2018-07-25T11:09:05.458Z,4812.00
2018-07-25T11:10:05.458Z,4852.00
2018-07-25T11:11:05.447Z,4824.00
2018-07-25T11:12:05.443Z,4892.00
2018-07-25T11:13:05.442Z,4624.00
2018-07-25T11:14:05.437Z,5412.00
2018-07-25T11:15:05.428Z,5452.00
2018-07-25T11:16:05.424Z,5904.00
2018-07-25T11:17:05.420Z,6176.00
2018-07-25T11:18:05.414Z,6052.00
2018-07-25T11:19:05.410Z,6048.00
2018-07-25T11:20:05.405Z,5860.00
2018-07-25T11:21:05.399Z,6248.00
2018-07-25T11:22:05.407Z,6312.00
2018-07-25T11:23:05.501Z,6300.00
2018-07-25T11:24:05.387Z,5888.00
2018-07-25T11:25:05.381Z,5532.00
2018-07-25T11:26:05.377Z,5280.00
2018-07-25T11:27:05.372Z,5360.00
2018-07-25T11:28:05.370Z,5492.00
2018-07-25T11:29:05.363Z,5624.00
2018-07-25T11:30:05.359Z,5572.00
2018-07-25T11:31:05.355Z,5676.00
2018-07-25T11:32:05.351Z,5856.00
2018-07-25T11:33:05.345Z,6128.00
2018-07-25T11:34:05.342Z,6412.00
2018-07-25T11:35:05.338Z,6432.00
2018-07-25T11:36:05.332Z,3892.00
2018-07-25T11:37:05.327Z,3848.00
2018-07-25T11:38:05.378Z,3328.00
2018-07-25T11:39:05.319Z,2924.00
2018-07-25T11:40:05.316Z,2696.00
2018-07-25T11:41:05.314Z,2684.00
2018-07-25T11:42:05.306Z,3188.00
2018-07-25T11:43:05.301Z,5808.00
2018-07-25T11:44:05.298Z,6088.00
2018-07-25T11:45:05.294Z,6420.00
2018-07-25T11:46:05.288Z,6212.00
2018-07-25T11:47:05.285Z,5980.00
2018-07-25T11:48:05.279Z,5824.00
2018-07-25T11:49:05.275Z,5620.00
2018-07-25T11:50:05.337Z,5644.00
2018-07-25T11:51:05.266Z,5812.00
2018-07-25T11:52:05.261Z,6008.00
2018-07-25T11:53:05.257Z,6180.00
2018-07-25T11:54:05.260Z,6120.00
2018-07-25T11:55:05.247Z,6052.00
2018-07-25T11:56:05.248Z,6040.00
2018-07-25T11:57:05.238Z,6400.00
2018-07-25T11:58:05.236Z,6992.00
2018-07-25T11:59:05.232Z,5868.00
2018-07-25T12:00:05.228Z,7756.00
2018-07-25T12:01:05.259Z,8476.00
2018-07-25T12:02:05.225Z,9048.00
2018-07-25T12:03:05.224Z,4276.00
2018-07-25T12:04:05.211Z,6076.00
2018-07-25T12:05:05.206Z,4524.00
2018-07-25T12:06:05.203Z,3804.00
2018-07-25T12:07:05.201Z,3856.00
2018-07-25T12:08:05.195Z,2976.00
2018-07-25T12:09:05.193Z,2708.00
2018-07-25T12:10:05.187Z,10644.00
2018-07-25T12:11:05.183Z,11188.00
2018-07-25T12:12:05.178Z,18336.00
2018-07-25T12:13:05.215Z,22048.00
2018-07-25T12:14:05.170Z,68960.00
2018-07-25T12:15:05.173Z,94688.00
2018-07-25T12:16:05.163Z,49216.00
2018-07-25T12:17:05.160Z,11412.00
2018-07-25T12:18:05.159Z,10152.00
2018-07-25T12:19:05.154Z,29472.00
2018-07-25T12:20:05.153Z,73408.00
2018-07-25T12:21:05.146Z,92320.00
2018-07-25T12:22:05.145Z,96672.00
2018-07-25T12:23:05.139Z,98816.00
2018-07-25T12:24:05.139Z,94720.00
2018-07-25T12:25:05.139Z,88480.00
2018-07-25T12:26:05.133Z,73792.00
2018-07-25T12:27:05.141Z,48960.00